sensor_id;sensor_type;location;lat;lon;timestamp;pressure;altitude;pressure_sealevel;temperature;humidity
51524;BME280;37610;51.790;21.590;2022-12-11T00:01:09;99097.29;;;0.52;79.87
51524;BME280;37610;51.790;21.590;2022-12-11T00:05:16;99092.29;;;0.44;79.88
51524;BME280;37610;51.790;21.590;2022-12-11T00:09:18;99085.86;;;0.36;80.18
51524;BME280;37610;51.790;21.590;2022-12-11T00:13:21;99085.75;;;0.27;80.08
51524;BME280;37610;51.790;21.590;2022-12-11T00:17:22;99086.79;;;0.25;80.03
51524;BME280;37610;51.790;21.590;2022-12-11T00:21:24;99090.48;;;0.26;80.09
51524;BME280;37610;51.790;21.590;2022-12-11T00:25:25;99088.17;;;0.28;79.97
51524;BME280;37610;51.790;21.590;2022-12-11T00:29:27;99087.55;;;0.31;80.17
51524;BME280;37610;51.790;21.590;2022-12-11T00:33:28;99090.27;;;0.29;80.27
51524;BME280;37610;51.790;21.590;2022-12-11T00:37:30;99090.89;;;0.23;80.07
51524;BME280;37610;51.790;21.590;2022-12-11T00:41:31;99084.25;;;0.15;80.05
51524;BME280;37610;51.790;21.590;2022-12-11T00:45:38;99083.67;;;0.10;79.92
51524;BME280;37610;51.790;21.590;2022-12-11T00:49:41;99078.66;;;0.11;79.87
51524;BME280;37610;51.790;21.590;2022-12-11T00:53:42;99077.38;;;0.15;80.06
51524;BME280;37610;51.790;21.590;2022-12-11T00:57:44;99080.57;;;0.20;80.10
51524;BME280;37610;51.790;21.590;2022-12-11T01:01:46;99073.05;;;0.21;79.95
51524;BME280;37610;51.790;21.590;2022-12-11T01:05:52;99069.04;;;0.20;80.10
51524;BME280;37610;51.790;21.590;2022-12-11T01:09:54;99074.46;;;0.15;79.96
51524;BME280;37610;51.790;21.590;2022-12-11T01:14:14;99068.89;;;0.10;80.09
51524;BME280;37610;51.790;21.590;2022-12-11T01:18:15;99062.59;;;0.05;80.08
51524;BME280;37610;51.790;21.590;2022-12-11T01:22:17;99061.88;;;0.03;80.11
51524;BME280;37610;51.790;21.590;2022-12-11T01:26:19;99052.65;;;0.04;79.69
51524;BME280;37610;51.790;21.590;2022-12-11T01:30:22;99040.71;;;0.05;80.08
51524;BME280;37610;51.790;21.590;2022-12-11T01:34:24;99022.38;;;0.09;79.88
51524;BME280;37610;51.790;21.590;2022-12-11T01:38:25;99017.77;;;0.06;79.84
51524;BME280;37610;51.790;21.590;2022-12-11T01:42:27;99007.64;;;-0.04;79.89
51524;BME280;37610;51.790;21.590;2022-12-11T01:46:33;99006.93;;;-0.07;80.26
51524;BME280;37610;51.790;21.590;2022-12-11T01:50:40;99005.77;;;-0.04;80.28
51524;BME280;37610;51.790;21.590;2022-12-11T01:54:42;99007.08;;;-0.00;79.91
51524;BME280;37610;51.790;21.590;2022-12-11T01:58:51;98996.73;;;0.02;79.86
51524;BME280;37610;51.790;21.590;2022-12-11T02:02:54;98988.97;;;0.07;79.98
51524;BME280;37610;51.790;21.590;2022-12-11T02:06:55;98985.45;;;0.04;79.96
51524;BME280;37610;51.790;21.590;2022-12-11T02:11:08;98984.95;;;-0.02;80.22
51524;BME280;37610;51.790;21.590;2022-12-11T02:15:25;98984.25;;;-0.05;80.47
51524;BME280;37610;51.790;21.590;2022-12-11T02:28:48;98979.33;;;-0.08;80.32
51524;BME280;37610;51.790;21.590;2022-12-11T02:32:56;98977.60;;;0.02;80.47
51524;BME280;37610;51.790;21.590;2022-12-11T02:37:02;98980.30;;;0.01;80.43
51524;BME280;37610;51.790;21.590;2022-12-11T02:41:06;98977.15;;;0.01;80.52
51524;BME280;37610;51.790;21.590;2022-12-11T02:45:09;98971.77;;;-0.05;80.44
51524;BME280;37610;51.790;21.590;2022-12-11T02:49:12;98970.98;;;-0.12;80.35
51524;BME280;37610;51.790;21.590;2022-12-11T02:53:18;98973.75;;;-0.13;80.29
51524;BME280;37610;51.790;21.590;2022-12-11T02:57:26;98967.44;;;-0.11;80.53
51524;BME280;37610;51.790;21.590;2022-12-11T03:01:31;98967.00;;;-0.07;80.81
51524;BME280;37610;51.790;21.590;2022-12-11T03:05:33;98966.09;;;-0.04;81.45
51524;BME280;37610;51.790;21.590;2022-12-11T03:09:34;98965.56;;;-0.02;81.21
51524;BME280;37610;51.790;21.590;2022-12-11T03:13:36;98961.92;;;-0.08;81.31
51524;BME280;37610;51.790;21.590;2022-12-11T03:21:58;98964.54;;;-0.13;81.26
51524;BME280;37610;51.790;21.590;2022-12-11T03:26:04;98952.85;;;-0.11;81.24
51524;BME280;37610;51.790;21.590;2022-12-11T03:30:10;98952.31;;;-0.13;81.31
51524;BME280;37610;51.790;21.590;2022-12-11T03:34:18;98956.61;;;-0.18;81.53
51524;BME280;37610;51.790;21.590;2022-12-11T03:38:36;98952.18;;;-0.17;82.13
51524;BME280;37610;51.790;21.590;2022-12-11T03:42:39;98947.65;;;-0.17;82.00
51524;BME280;37610;51.790;21.590;2022-12-11T03:46:44;98946.09;;;-0.17;81.53
51524;BME280;37610;51.790;21.590;2022-12-11T03:50:46;98945.87;;;-0.19;81.70
51524;BME280;37610;51.790;21.590;2022-12-11T03:54:49;98941.01;;;-0.19;81.83
51524;BME280;37610;51.790;21.590;2022-12-11T03:58:51;98931.98;;;-0.24;81.70
51524;BME280;37610;51.790;21.590;2022-12-11T04:02:52;98933.66;;;-0.29;82.00
51524;BME280;37610;51.790;21.590;2022-12-11T04:07:13;98937.33;;;-0.26;81.91
51524;BME280;37610;51.790;21.590;2022-12-11T04:11:14;98934.89;;;-0.22;82.04
51524;BME280;37610;51.790;21.590;2022-12-11T04:15:35;98926.77;;;-0.22;81.90
51524;BME280;37610;51.790;21.590;2022-12-11T04:19:37;98921.53;;;-0.26;81.95
51524;BME280;37610;51.790;21.590;2022-12-11T04:23:57;98922.45;;;-0.31;82.34
51524;BME280;37610;51.790;21.590;2022-12-11T04:28:17;98916.44;;;-0.34;82.21
51524;BME280;37610;51.790;21.590;2022-12-11T04:32:18;98918.38;;;-0.38;82.03
51524;BME280;37610;51.790;21.590;2022-12-11T04:36:20;98917.48;;;-0.44;82.48
51524;BME280;37610;51.790;21.590;2022-12-11T04:40:22;98915.17;;;-0.52;82.43
51524;BME280;37610;51.790;21.590;2022-12-11T04:44:23;98912.52;;;-0.53;82.59
51524;BME280;37610;51.790;21.590;2022-12-11T04:48:25;98904.67;;;-0.58;82.48
51524;BME280;37610;51.790;21.590;2022-12-11T04:52:26;98900.71;;;-0.60;82.55
51524;BME280;37610;51.790;21.590;2022-12-11T04:56:28;98889.77;;;-0.59;82.75
51524;BME280;37610;51.790;21.590;2022-12-11T05:00:29;98880.06;;;-0.57;83.06
51524;BME280;37610;51.790;21.590;2022-12-11T05:04:33;98874.02;;;-0.59;82.92
51524;BME280;37610;51.790;21.590;2022-12-11T05:08:36;98870.10;;;-0.61;82.90
51524;BME280;37610;51.790;21.590;2022-12-11T05:12:38;98859.69;;;-0.68;82.98
51524;BME280;37610;51.790;21.590;2022-12-11T05:16:40;98845.31;;;-0.77;82.78
51524;BME280;37610;51.790;21.590;2022-12-11T05:20:42;98843.17;;;-0.78;83.11
51524;BME280;37610;51.790;21.590;2022-12-11T05:24:44;98840.13;;;-0.78;82.88
51524;BME280;37610;51.790;21.590;2022-12-11T05:28:49;98829.77;;;-0.81;82.80
51524;BME280;37610;51.790;21.590;2022-12-11T05:32:51;98823.95;;;-0.84;83.30
51524;BME280;37610;51.790;21.590;2022-12-11T05:36:53;98817.56;;;-0.89;83.24
51524;BME280;37610;51.790;21.590;2022-12-11T05:41:05;98817.88;;;-0.88;83.28
51524;BME280;37610;51.790;21.590;2022-12-11T05:45:07;98816.20;;;-0.91;83.33
51524;BME280;37610;51.790;21.590;2022-12-11T05:49:09;98812.21;;;-0.94;83.57
51524;BME280;37610;51.790;21.590;2022-12-11T05:53:10;98809.13;;;-0.95;83.47
51524;BME280;37610;51.790;21.590;2022-12-11T05:57:12;98808.48;;;-0.99;83.41
51524;BME280;37610;51.790;21.590;2022-12-11T06:01:21;98810.23;;;-1.02;83.55
51524;BME280;37610;51.790;21.590;2022-12-11T06:05:23;98815.30;;;-1.01;83.74
51524;BME280;37610;51.790;21.590;2022-12-11T06:09:25;98818.30;;;-0.99;83.79
51524;BME280;37610;51.790;21.590;2022-12-11T06:13:26;98822.64;;;-0.99;83.53
51524;BME280;37610;51.790;21.590;2022-12-11T06:17:28;98828.99;;;-1.04;83.46
51524;BME280;37610;51.790;21.590;2022-12-11T06:21:31;98830.97;;;-1.03;83.41
51524;BME280;37610;51.790;21.590;2022-12-11T06:25:33;98835.05;;;-1.00;83.46
51524;BME280;37610;51.790;21.590;2022-12-11T06:29:35;98834.57;;;-1.00;83.19
51524;BME280;37610;51.790;21.590;2022-12-11T06:33:37;98831.60;;;-1.07;82.95
51524;BME280;37610;51.790;21.590;2022-12-11T06:37:39;98829.89;;;-1.10;82.97
51524;BME280;37610;51.790;21.590;2022-12-11T06:41:41;98820.27;;;-1.15;83.45
51524;BME280;37610;51.790;21.590;2022-12-11T06:45:42;98813.48;;;-1.21;83.46
51524;BME280;37610;51.790;21.590;2022-12-11T06:49:44;98811.09;;;-1.23;83.22
51524;BME280;37610;51.790;21.590;2022-12-11T06:53:53;98811.37;;;-1.24;83.07
51524;BME280;37610;51.790;21.590;2022-12-11T06:57:55;98803.28;;;-1.27;83.54
51524;BME280;37610;51.790;21.590;2022-12-11T07:01:56;98799.39;;;-1.29;83.47
51524;BME280;37610;51.790;21.590;2022-12-11T07:06:01;98794.46;;;-1.32;83.44
51524;BME280;37610;51.790;21.590;2022-12-11T07:10:03;98792.83;;;-1.35;83.46
51524;BME280;37610;51.790;21.590;2022-12-11T07:14:05;98788.69;;;-1.40;83.66
51524;BME280;37610;51.790;21.590;2022-12-11T07:18:07;98780.42;;;-1.45;83.60
51524;BME280;37610;51.790;21.590;2022-12-11T07:22:09;98777.54;;;-1.48;83.90
51524;BME280;37610;51.790;21.590;2022-12-11T07:26:13;98770.08;;;-1.52;83.78
51524;BME280;37610;51.790;21.590;2022-12-11T07:30:15;98776.56;;;-1.56;84.08
51524;BME280;37610;51.790;21.590;2022-12-11T07:34:16;98774.48;;;-1.61;84.00
51524;BME280;37610;51.790;21.590;2022-12-11T07:38:18;98772.56;;;-1.69;84.04
51524;BME280;37610;51.790;21.590;2022-12-11T07:42:20;98773.80;;;-1.70;83.86
51524;BME280;37610;51.790;21.590;2022-12-11T07:46:23;98768.98;;;-1.69;84.19
51524;BME280;37610;51.790;21.590;2022-12-11T07:50:25;98771.72;;;-1.66;84.29
51524;BME280;37610;51.790;21.590;2022-12-11T07:54:27;98765.13;;;-1.67;84.24
51524;BME280;37610;51.790;21.590;2022-12-11T07:58:28;98762.73;;;-1.68;84.21
51524;BME280;37610;51.790;21.590;2022-12-11T08:02:30;98761.23;;;-1.66;83.94
51524;BME280;37610;51.790;21.590;2022-12-11T08:06:34;98751.85;;;-1.64;84.02
51524;BME280;37610;51.790;21.590;2022-12-11T08:10:36;98743.45;;;-1.69;83.76
51524;BME280;37610;51.790;21.590;2022-12-11T08:14:38;98742.97;;;-1.71;83.83
51524;BME280;37610;51.790;21.590;2022-12-11T08:18:41;98733.35;;;-1.68;83.72
51524;BME280;37610;51.790;21.590;2022-12-11T08:22:43;98727.80;;;-1.72;83.54
51524;BME280;37610;51.790;21.590;2022-12-11T08:26:44;98721.05;;;-1.75;83.73
51524;BME280;37610;51.790;21.590;2022-12-11T08:30:46;98716.06;;;-1.74;83.61
51524;BME280;37610;51.790;21.590;2022-12-11T08:34:50;98716.00;;;-1.78;83.59
51524;BME280;37610;51.790;21.590;2022-12-11T08:38:54;98716.88;;;-1.80;83.58
51524;BME280;37610;51.790;21.590;2022-12-11T08:42:55;98721.34;;;-1.82;83.74
51524;BME280;37610;51.790;21.590;2022-12-11T08:46:57;98724.20;;;-1.84;83.81
51524;BME280;37610;51.790;21.590;2022-12-11T08:51:00;98717.53;;;-1.86;84.24
51524;BME280;37610;51.790;21.590;2022-12-11T08:55:02;98716.13;;;-1.91;83.94
51524;BME280;37610;51.790;21.590;2022-12-11T08:59:03;98712.41;;;-1.93;84.04
51524;BME280;37610;51.790;21.590;2022-12-11T09:03:06;98707.04;;;-1.91;84.13
51524;BME280;37610;51.790;21.590;2022-12-11T09:07:09;98707.27;;;-1.90;84.14
51524;BME280;37610;51.790;21.590;2022-12-11T09:11:13;98693.45;;;-1.90;84.14
51524;BME280;37610;51.790;21.590;2022-12-11T09:15:15;98688.14;;;-1.87;83.99
51524;BME280;37610;51.790;21.590;2022-12-11T09:19:17;98680.16;;;-1.86;83.45
51524;BME280;37610;51.790;21.590;2022-12-11T09:23:19;98675.98;;;-1.86;83.83
51524;BME280;37610;51.790;21.590;2022-12-11T09:27:20;98670.49;;;-1.80;83.97
51524;BME280;37610;51.790;21.590;2022-12-11T09:31:27;98669.98;;;-1.80;83.67
51524;BME280;37610;51.790;21.590;2022-12-11T09:35:30;98654.04;;;-1.81;83.66
51524;BME280;37610;51.790;21.590;2022-12-11T09:39:31;98648.80;;;-1.80;83.43
51524;BME280;37610;51.790;21.590;2022-12-11T09:43:46;98646.83;;;-1.80;83.43
51524;BME280;37610;51.790;21.590;2022-12-11T09:47:52;98639.48;;;-1.82;82.93
51524;BME280;37610;51.790;21.590;2022-12-11T09:56:18;98621.38;;;-1.82;83.62
51524;BME280;37610;51.790;21.590;2022-12-11T10:00:46;98615.77;;;-1.80;83.53
51524;BME280;37610;51.790;21.590;2022-12-11T10:05:02;98607.77;;;-1.78;83.14
51524;BME280;37610;51.790;21.590;2022-12-11T10:09:12;98607.13;;;-1.73;83.41
51524;BME280;37610;51.790;21.590;2022-12-11T10:17:42;98591.46;;;-1.70;82.79
51524;BME280;37610;51.790;21.590;2022-12-11T10:21:44;98589.70;;;-1.70;83.15
51524;BME280;37610;51.790;21.590;2022-12-11T10:25:52;98590.42;;;-1.66;83.34
51524;BME280;37610;51.790;21.590;2022-12-11T10:34:34;98583.09;;;-1.65;82.95
51524;BME280;37610;51.790;21.590;2022-12-11T10:38:41;98587.13;;;-1.64;82.88
51524;BME280;37610;51.790;21.590;2022-12-11T10:42:51;98578.78;;;-1.64;82.63
51524;BME280;37610;51.790;21.590;2022-12-11T10:51:04;98557.05;;;-1.67;82.65
51524;BME280;37610;51.790;21.590;2022-12-11T10:55:30;98554.04;;;-1.66;82.58
51524;BME280;37610;51.790;21.590;2022-12-11T10:59:47;98548.31;;;-1.66;82.58
51524;BME280;37610;51.790;21.590;2022-12-11T11:04:06;98545.44;;;-1.66;82.54
51524;BME280;37610;51.790;21.590;2022-12-11T11:08:17;98538.38;;;-1.65;82.38
51524;BME280;37610;51.790;21.590;2022-12-11T11:12:25;98540.11;;;-1.66;82.54
51524;BME280;37610;51.790;21.590;2022-12-11T11:16:27;98535.45;;;-1.66;82.48
51524;BME280;37610;51.790;21.590;2022-12-11T11:20:30;98534.11;;;-1.65;82.56
51524;BME280;37610;51.790;21.590;2022-12-11T11:24:36;98528.00;;;-1.63;82.72
51524;BME280;37610;51.790;21.590;2022-12-11T11:28:41;98521.80;;;-1.63;82.02
51524;BME280;37610;51.790;21.590;2022-12-11T11:32:49;98516.91;;;-1.67;82.42
51524;BME280;37610;51.790;21.590;2022-12-11T11:36:57;98510.55;;;-1.69;82.49
51524;BME280;37610;51.790;21.590;2022-12-11T11:41:20;98511.02;;;-1.66;82.91
51524;BME280;37610;51.790;21.590;2022-12-11T11:45:36;98510.63;;;-1.62;82.41
51524;BME280;37610;51.790;21.590;2022-12-11T12:03:08;98498.77;;;-1.75;82.38
51524;BME280;37610;51.790;21.590;2022-12-11T12:07:37;98500.64;;;-1.77;81.84
51524;BME280;37610;51.790;21.590;2022-12-11T12:21:08;98501.36;;;-1.89;82.11
51524;BME280;37610;51.790;21.590;2022-12-11T12:34:01;98508.88;;;-1.91;81.99
51524;BME280;37610;51.790;21.590;2022-12-11T12:38:41;98510.98;;;-1.85;81.75
51524;BME280;37610;51.790;21.590;2022-12-11T12:47:11;98506.73;;;-2.01;81.72
51524;BME280;37610;51.790;21.590;2022-12-11T12:51:15;98500.60;;;-2.03;82.13
51524;BME280;37610;51.790;21.590;2022-12-11T12:55:21;98503.91;;;-2.07;81.89
51524;BME280;37610;51.790;21.590;2022-12-11T12:59:25;98504.67;;;-2.14;81.76
51524;BME280;37610;51.790;21.590;2022-12-11T13:03:30;98501.52;;;-2.24;81.65
51524;BME280;37610;51.790;21.590;2022-12-11T13:07:32;98507.71;;;-2.26;82.15
51524;BME280;37610;51.790;21.590;2022-12-11T13:11:34;98504.11;;;-2.29;82.46
51524;BME280;37610;51.790;21.590;2022-12-11T13:15:39;98504.95;;;-2.27;82.18
51524;BME280;37610;51.790;21.590;2022-12-11T13:19:43;98507.89;;;-2.26;82.40
51524;BME280;37610;51.790;21.590;2022-12-11T13:23:44;98513.39;;;-2.20;82.47
51524;BME280;37610;51.790;21.590;2022-12-11T13:27:46;98516.17;;;-2.20;82.28
51524;BME280;37610;51.790;21.590;2022-12-11T13:31:59;98515.25;;;-2.24;82.00
51524;BME280;37610;51.790;21.590;2022-12-11T13:36:24;98510.98;;;-2.24;81.92
51524;BME280;37610;51.790;21.590;2022-12-11T13:40:34;98505.70;;;-2.28;82.28
51524;BME280;37610;51.790;21.590;2022-12-11T13:44:41;98503.07;;;-2.27;82.17
51524;BME280;37610;51.790;21.590;2022-12-11T13:48:52;98497.80;;;-2.23;82.09
51524;BME280;37610;51.790;21.590;2022-12-11T13:53:02;98484.04;;;-2.27;82.37
51524;BME280;37610;51.790;21.590;2022-12-11T14:01:26;98484.23;;;-2.38;82.61
51524;BME280;37610;51.790;21.590;2022-12-11T14:05:29;98487.52;;;-2.41;82.54
51524;BME280;37610;51.790;21.590;2022-12-11T14:09:31;98486.80;;;-2.41;82.40
51524;BME280;37610;51.790;21.590;2022-12-11T14:13:35;98483.39;;;-2.41;82.82
51524;BME280;37610;51.790;21.590;2022-12-11T14:17:41;98485.27;;;-2.44;82.57
51524;BME280;37610;51.790;21.590;2022-12-11T14:21:54;98478.96;;;-2.54;82.27
51524;BME280;37610;51.790;21.590;2022-12-11T14:25:57;98467.38;;;-2.58;82.56
51524;BME280;37610;51.790;21.590;2022-12-11T14:30:09;98464.65;;;-2.67;82.39
51524;BME280;37610;51.790;21.590;2022-12-11T14:34:34;98463.99;;;-2.75;82.65
51524;BME280;37610;51.790;21.590;2022-12-11T14:38:43;98464.74;;;-2.80;82.35
51524;BME280;37610;51.790;21.590;2022-12-11T14:42:50;98466.55;;;-2.84;82.69
51524;BME280;37610;51.790;21.590;2022-12-11T14:46:56;98470.14;;;-2.87;82.81
51524;BME280;37610;51.790;21.590;2022-12-11T14:51:00;98474.96;;;-2.93;82.84
51524;BME280;37610;51.790;21.590;2022-12-11T14:55:14;98486.02;;;-2.95;82.97
51524;BME280;37610;51.790;21.590;2022-12-11T14:59:22;98502.16;;;-2.95;82.92
51524;BME280;37610;51.790;21.590;2022-12-11T15:03:35;98511.25;;;-2.95;82.83
51524;BME280;37610;51.790;21.590;2022-12-11T15:07:38;98510.41;;;-2.93;82.91
51524;BME280;37610;51.790;21.590;2022-12-11T15:11:40;98500.63;;;-2.95;82.74
51524;BME280;37610;51.790;21.590;2022-12-11T15:15:45;98502.75;;;-2.91;82.98
51524;BME280;37610;51.790;21.590;2022-12-11T15:19:49;98501.50;;;-2.92;82.60
51524;BME280;37610;51.790;21.590;2022-12-11T15:23:57;98496.34;;;-2.90;82.87
51524;BME280;37610;51.790;21.590;2022-12-11T15:28:00;98493.39;;;-2.87;82.94
51524;BME280;37610;51.790;21.590;2022-12-11T15:40:27;98480.48;;;-2.92;82.95
51524;BME280;37610;51.790;21.590;2022-12-11T15:44:29;98484.10;;;-2.93;83.19
51524;BME280;37610;51.790;21.590;2022-12-11T15:48:31;98489.84;;;-2.96;83.24
51524;BME280;37610;51.790;21.590;2022-12-11T15:52:32;98485.73;;;-2.97;83.24
51524;BME280;37610;51.790;21.590;2022-12-11T15:56:34;98481.23;;;-2.99;83.18
51524;BME280;37610;51.790;21.590;2022-12-11T16:00:36;98482.30;;;-2.97;83.38
51524;BME280;37610;51.790;21.590;2022-12-11T16:04:38;98493.08;;;-2.97;83.24
51524;BME280;37610;51.790;21.590;2022-12-11T16:08:40;98504.25;;;-2.95;83.12
51524;BME280;37610;51.790;21.590;2022-12-11T16:12:41;98510.73;;;-2.96;82.70
51524;BME280;37610;51.790;21.590;2022-12-11T16:16:43;98518.00;;;-2.98;82.60
51524;BME280;37610;51.790;21.590;2022-12-11T16:20:45;98521.20;;;-2.97;82.72
51524;BME280;37610;51.790;21.590;2022-12-11T16:24:47;98523.78;;;-2.94;82.47
51524;BME280;37610;51.790;21.590;2022-12-11T16:28:48;98517.94;;;-2.98;82.39
51524;BME280;37610;51.790;21.590;2022-12-11T16:32:50;98518.52;;;-2.98;82.56
51524;BME280;37610;51.790;21.590;2022-12-11T16:36:52;98514.64;;;-2.97;82.77
51524;BME280;37610;51.790;21.590;2022-12-11T16:40:59;98518.37;;;-2.94;82.59
51524;BME280;37610;51.790;21.590;2022-12-11T16:45:08;98521.27;;;-2.94;82.71
51524;BME280;37610;51.790;21.590;2022-12-11T16:49:11;98523.61;;;-2.93;82.82
51524;BME280;37610;51.790;21.590;2022-12-11T16:53:12;98525.66;;;-2.91;82.85
51524;BME280;37610;51.790;21.590;2022-12-11T16:57:15;98514.02;;;-2.91;82.93
51524;BME280;37610;51.790;21.590;2022-12-11T17:01:16;98517.16;;;-2.93;82.58
51524;BME280;37610;51.790;21.590;2022-12-11T17:05:18;98520.55;;;-2.99;82.30
51524;BME280;37610;51.790;21.590;2022-12-11T17:09:19;98515.19;;;-2.99;82.43
51524;BME280;37610;51.790;21.590;2022-12-11T17:13:21;98516.33;;;-2.99;82.40
51524;BME280;37610;51.790;21.590;2022-12-11T17:17:23;98507.80;;;-2.99;82.36
51524;BME280;37610;51.790;21.590;2022-12-11T17:21:25;98509.89;;;-3.01;82.17
51524;BME280;37610;51.790;21.590;2022-12-11T17:25:27;98513.35;;;-3.03;82.26
51524;BME280;37610;51.790;21.590;2022-12-11T17:29:28;98514.06;;;-3.03;82.45
51524;BME280;37610;51.790;21.590;2022-12-11T17:33:30;98526.98;;;-3.03;82.36
51524;BME280;37610;51.790;21.590;2022-12-11T17:37:31;98527.70;;;-3.04;82.40
51524;BME280;37610;51.790;21.590;2022-12-11T17:41:33;98529.65;;;-3.06;82.44
51524;BME280;37610;51.790;21.590;2022-12-11T17:45:43;98531.11;;;-3.05;82.43
51524;BME280;37610;51.790;21.590;2022-12-11T17:49:45;98531.33;;;-3.07;82.39
51524;BME280;37610;51.790;21.590;2022-12-11T17:53:47;98532.55;;;-3.11;82.47
51524;BME280;37610;51.790;21.590;2022-12-11T17:57:48;98532.45;;;-3.13;82.53
51524;BME280;37610;51.790;21.590;2022-12-11T18:01:50;98526.45;;;-3.15;82.48
51524;BME280;37610;51.790;21.590;2022-12-11T18:05:53;98518.90;;;-3.17;82.45
51524;BME280;37610;51.790;21.590;2022-12-11T18:09:55;98514.96;;;-3.17;82.56
51524;BME280;37610;51.790;21.590;2022-12-11T18:13:57;98517.38;;;-3.20;82.49
51524;BME280;37610;51.790;21.590;2022-12-11T18:17:59;98517.52;;;-3.21;82.64
51524;BME280;37610;51.790;21.590;2022-12-11T18:22:01;98505.48;;;-3.23;82.55
51524;BME280;37610;51.790;21.590;2022-12-11T18:26:02;98496.92;;;-3.27;82.56
51524;BME280;37610;51.790;21.590;2022-12-11T18:30:04;98486.92;;;-3.26;82.62
51524;BME280;37610;51.790;21.590;2022-12-11T18:34:06;98486.73;;;-3.26;82.51
51524;BME280;37610;51.790;21.590;2022-12-11T18:38:08;98496.05;;;-3.26;82.66
51524;BME280;37610;51.790;21.590;2022-12-11T18:42:09;98502.98;;;-3.27;82.55
51524;BME280;37610;51.790;21.590;2022-12-11T18:46:13;98509.21;;;-3.35;82.21
51524;BME280;37610;51.790;21.590;2022-12-11T18:50:16;98510.14;;;-3.41;82.59
51524;BME280;37610;51.790;21.590;2022-12-11T18:54:17;98515.63;;;-3.36;82.84
51524;BME280;37610;51.790;21.590;2022-12-11T18:58:19;98514.89;;;-3.32;82.78
51524;BME280;37610;51.790;21.590;2022-12-11T19:02:21;98517.60;;;-3.32;82.45
51524;BME280;37610;51.790;21.590;2022-12-11T19:06:25;98512.73;;;-3.31;82.57
51524;BME280;37610;51.790;21.590;2022-12-11T19:10:28;98514.84;;;-3.32;82.53
51524;BME280;37610;51.790;21.590;2022-12-11T19:14:30;98511.23;;;-3.31;82.88
51524;BME280;37610;51.790;21.590;2022-12-11T19:18:31;98514.63;;;-3.31;82.94
51524;BME280;37610;51.790;21.590;2022-12-11T19:22:33;98514.73;;;-3.34;82.78
51524;BME280;37610;51.790;21.590;2022-12-11T19:26:35;98514.20;;;-3.37;82.72
51524;BME280;37610;51.790;21.590;2022-12-11T19:30:42;98520.96;;;-3.39;82.82
51524;BME280;37610;51.790;21.590;2022-12-11T19:34:43;98527.67;;;-3.41;82.82
51524;BME280;37610;51.790;21.590;2022-12-11T19:38:46;98540.16;;;-3.45;82.72
51524;BME280;37610;51.790;21.590;2022-12-11T19:42:47;98537.96;;;-3.47;82.68
51524;BME280;37610;51.790;21.590;2022-12-11T19:46:49;98535.67;;;-3.48;82.58
51524;BME280;37610;51.790;21.590;2022-12-11T19:50:50;98526.84;;;-3.47;82.70
51524;BME280;37610;51.790;21.590;2022-12-11T19:54:52;98521.12;;;-3.50;82.85
51524;BME280;37610;51.790;21.590;2022-12-11T19:58:53;98512.89;;;-3.51;82.94
51524;BME280;37610;51.790;21.590;2022-12-11T20:02:55;98514.58;;;-3.49;82.84
51524;BME280;37610;51.790;21.590;2022-12-11T20:06:57;98522.55;;;-3.46;83.01
51524;BME280;37610;51.790;21.590;2022-12-11T20:11:07;98527.00;;;-3.46;82.92
51524;BME280;37610;51.790;21.590;2022-12-11T20:15:09;98524.55;;;-3.45;82.69
51524;BME280;37610;51.790;21.590;2022-12-11T20:19:11;98530.02;;;-3.48;82.62
51524;BME280;37610;51.790;21.590;2022-12-11T20:23:13;98535.54;;;-3.52;82.67
51524;BME280;37610;51.790;21.590;2022-12-11T20:27:14;98530.34;;;-3.56;82.60
51524;BME280;37610;51.790;21.590;2022-12-11T20:31:18;98535.34;;;-3.58;82.58
51524;BME280;37610;51.790;21.590;2022-12-11T20:35:21;98540.43;;;-3.54;82.85
51524;BME280;37610;51.790;21.590;2022-12-11T20:39:22;98544.77;;;-3.54;82.46
51524;BME280;37610;51.790;21.590;2022-12-11T20:43:24;98543.86;;;-3.62;82.36
51524;BME280;37610;51.790;21.590;2022-12-11T20:47:25;98544.79;;;-3.68;82.46
51524;BME280;37610;51.790;21.590;2022-12-11T20:51:27;98535.69;;;-3.67;82.69
51524;BME280;37610;51.790;21.590;2022-12-11T20:55:29;98537.36;;;-3.59;82.89
51524;BME280;37610;51.790;21.590;2022-12-11T20:59:31;98531.81;;;-3.59;82.44
51524;BME280;37610;51.790;21.590;2022-12-11T21:03:32;98529.20;;;-3.55;82.57
51524;BME280;37610;51.790;21.590;2022-12-11T21:07:35;98535.46;;;-3.57;82.20
51524;BME280;37610;51.790;21.590;2022-12-11T21:11:36;98529.35;;;-3.62;82.21
51524;BME280;37610;51.790;21.590;2022-12-11T21:15:39;98532.13;;;-3.60;82.55
51524;BME280;37610;51.790;21.590;2022-12-11T21:19:40;98533.06;;;-3.61;82.49
51524;BME280;37610;51.790;21.590;2022-12-11T21:23:43;98536.41;;;-3.64;82.39
51524;BME280;37610;51.790;21.590;2022-12-11T21:27:44;98544.42;;;-3.63;82.61
51524;BME280;37610;51.790;21.590;2022-12-11T21:31:46;98549.11;;;-3.56;82.52
51524;BME280;37610;51.790;21.590;2022-12-11T21:35:58;98544.95;;;-3.55;82.40
51524;BME280;37610;51.790;21.590;2022-12-11T21:40:00;98533.35;;;-3.49;82.59
51524;BME280;37610;51.790;21.590;2022-12-11T21:44:01;98534.02;;;-3.42;82.79
51524;BME280;37610;51.790;21.590;2022-12-11T21:48:03;98530.60;;;-3.44;82.46
51524;BME280;37610;51.790;21.590;2022-12-11T21:52:05;98520.88;;;-3.45;82.90
51524;BME280;37610;51.790;21.590;2022-12-11T21:56:11;98513.52;;;-3.44;82.85
51524;BME280;37610;51.790;21.590;2022-12-11T22:00:14;98517.95;;;-3.46;82.62
51524;BME280;37610;51.790;21.590;2022-12-11T22:04:16;98528.77;;;-3.48;82.43
51524;BME280;37610;51.790;21.590;2022-12-11T22:08:18;98537.39;;;-3.53;82.42
51524;BME280;37610;51.790;21.590;2022-12-11T22:12:23;98541.05;;;-3.55;82.67
51524;BME280;37610;51.790;21.590;2022-12-11T22:16:25;98548.60;;;-3.52;82.84
51524;BME280;37610;51.790;21.590;2022-12-11T22:20:26;98557.14;;;-3.54;82.40
51524;BME280;37610;51.790;21.590;2022-12-11T22:24:28;98553.58;;;-3.60;82.50
51524;BME280;37610;51.790;21.590;2022-12-11T22:28:29;98554.48;;;-3.64;82.67
51524;BME280;37610;51.790;21.590;2022-12-11T22:32:31;98551.66;;;-3.63;82.69
51524;BME280;37610;51.790;21.590;2022-12-11T22:36:33;98550.87;;;-3.61;82.67